sensor_id;sensor_type;location;lat;lon;timestamp;P1;durP1;ratioP1;P2;durP2;ratioP2
28627;SDS011;15815;46.760;19.604;2023-05-29T00:01:47;24.05;;;11.07;;
28627;SDS011;15815;46.760;19.604;2023-05-29T00:06:44;17.33;;;9.75;;
28627;SDS011;15815;46.760;19.604;2023-05-29T00:09:10;21.42;;;11.75;;
28627;SDS011;15815;46.760;19.604;2023-05-29T00:11:36;15.32;;;9.40;;
28627;SDS011;15815;46.760;19.604;2023-05-29T00:14:01;15.82;;;10.05;;
28627;SDS011;15815;46.760;19.604;2023-05-29T00:16:27;17.30;;;10.85;;
28627;SDS011;15815;46.760;19.604;2023-05-29T00:18:53;13.95;;;10.10;;
28627;SDS011;15815;46.760;19.604;2023-05-29T00:21:18;16.45;;;9.45;;
28627;SDS011;15815;46.760;19.604;2023-05-29T00:23:44;18.20;;;10.15;;
28627;SDS011;15815;46.760;19.604;2023-05-29T00:26:10;15.20;;;9.60;;
28627;SDS011;15815;46.760;19.604;2023-05-29T00:28:36;17.90;;;9.93;;
28627;SDS011;15815;46.760;19.604;2023-05-29T00:31:01;11.88;;;8.93;;
28627;SDS011;15815;46.760;19.604;2023-05-29T00:33:27;16.52;;;9.05;;
28627;SDS011;15815;46.760;19.604;2023-05-29T00:35:53;17.48;;;9.38;;
28627;SDS011;15815;46.760;19.604;2023-05-29T00:38:19;18.15;;;9.50;;
28627;SDS011;15815;46.760;19.604;2023-05-29T00:40:44;22.35;;;10.27;;
28627;SDS011;15815;46.760;19.604;2023-05-29T00:43:10;14.85;;;9.15;;
28627;SDS011;15815;46.760;19.604;2023-05-29T00:45:36;17.20;;;9.50;;
28627;SDS011;15815;46.760;19.604;2023-05-29T00:48:08;20.45;;;11.07;;
28627;SDS011;15815;46.760;19.604;2023-05-29T00:50:33;17.23;;;9.93;;
28627;SDS011;15815;46.760;19.604;2023-05-29T00:53:00;20.33;;;9.52;;
28627;SDS011;15815;46.760;19.604;2023-05-29T00:55:26;15.68;;;9.68;;
28627;SDS011;15815;46.760;19.604;2023-05-29T00:57:53;13.93;;;8.93;;
28627;SDS011;15815;46.760;19.604;2023-05-29T01:00:19;15.32;;;9.15;;
28627;SDS011;15815;46.760;19.604;2023-05-29T01:02:45;18.38;;;10.43;;
28627;SDS011;15815;46.760;19.604;2023-05-29T01:05:12;15.40;;;10.27;;
28627;SDS011;15815;46.760;19.604;2023-05-29T01:07:38;14.38;;;9.52;;
28627;SDS011;15815;46.760;19.604;2023-05-29T01:10:06;12.50;;;9.70;;
28627;SDS011;15815;46.760;19.604;2023-05-29T01:15:28;19.13;;;9.60;;
28627;SDS011;15815;46.760;19.604;2023-05-29T01:20:50;19.45;;;10.77;;
28627;SDS011;15815;46.760;19.604;2023-05-29T01:28:27;15.68;;;9.75;;
28627;SDS011;15815;46.760;19.604;2023-05-29T01:30:57;15.75;;;9.98;;
28627;SDS011;15815;46.760;19.604;2023-05-29T01:33:26;16.95;;;10.45;;
28627;SDS011;15815;46.760;19.604;2023-05-29T01:35:52;14.05;;;10.23;;
28627;SDS011;15815;46.760;19.604;2023-05-29T01:38:18;15.52;;;10.38;;
28627;SDS011;15815;46.760;19.604;2023-05-29T01:40:44;21.52;;;11.15;;
28627;SDS011;15815;46.760;19.604;2023-05-29T01:43:12;19.55;;;10.65;;
28627;SDS011;15815;46.760;19.604;2023-05-29T01:45:38;19.08;;;9.65;;
28627;SDS011;15815;46.760;19.604;2023-05-29T01:48:05;18.40;;;10.70;;
28627;SDS011;15815;46.760;19.604;2023-05-29T01:50:32;15.55;;;10.02;;
28627;SDS011;15815;46.760;19.604;2023-05-29T01:52:59;18.00;;;11.18;;
28627;SDS011;15815;46.760;19.604;2023-05-29T01:55:25;19.20;;;11.38;;
28627;SDS011;15815;46.760;19.604;2023-05-29T01:57:51;15.68;;;10.32;;
28627;SDS011;15815;46.760;19.604;2023-05-29T02:00:19;15.20;;;10.50;;
28627;SDS011;15815;46.760;19.604;2023-05-29T02:02:44;13.27;;;10.05;;
28627;SDS011;15815;46.760;19.604;2023-05-29T02:05:10;15.23;;;11.43;;
28627;SDS011;15815;46.760;19.604;2023-05-29T02:07:37;15.95;;;9.98;;
28627;SDS011;15815;46.760;19.604;2023-05-29T02:10:03;19.02;;;11.00;;
28627;SDS011;15815;46.760;19.604;2023-05-29T02:12:29;16.42;;;11.02;;
28627;SDS011;15815;46.760;19.604;2023-05-29T02:14:55;13.93;;;10.43;;
28627;SDS011;15815;46.760;19.604;2023-05-29T02:17:21;16.52;;;10.85;;
28627;SDS011;15815;46.760;19.604;2023-05-29T02:19:47;19.17;;;11.52;;
28627;SDS011;15815;46.760;19.604;2023-05-29T02:22:13;13.10;;;10.32;;
28627;SDS011;15815;46.760;19.604;2023-05-29T02:24:39;14.80;;;11.10;;
28627;SDS011;15815;46.760;19.604;2023-05-29T02:27:05;16.20;;;10.60;;
28627;SDS011;15815;46.760;19.604;2023-05-29T02:29:32;21.38;;;11.93;;
28627;SDS011;15815;46.760;19.604;2023-05-29T02:31:57;16.75;;;11.05;;
28627;SDS011;15815;46.760;19.604;2023-05-29T02:34:26;19.95;;;11.48;;
28627;SDS011;15815;46.760;19.604;2023-05-29T02:36:52;19.98;;;11.00;;
28627;SDS011;15815;46.760;19.604;2023-05-29T02:39:18;20.25;;;11.38;;
28627;SDS011;15815;46.760;19.604;2023-05-29T02:41:47;14.70;;;10.27;;
28627;SDS011;15815;46.760;19.604;2023-05-29T02:44:16;20.23;;;10.65;;
28627;SDS011;15815;46.760;19.604;2023-05-29T02:46:41;17.42;;;11.13;;
28627;SDS011;15815;46.760;19.604;2023-05-29T02:49:07;17.60;;;10.50;;
28627;SDS011;15815;46.760;19.604;2023-05-29T02:51:33;14.13;;;9.88;;
28627;SDS011;15815;46.760;19.604;2023-05-29T02:53:59;20.02;;;11.73;;
28627;SDS011;15815;46.760;19.604;2023-05-29T02:56:24;16.30;;;10.10;;
28627;SDS011;15815;46.760;19.604;2023-05-29T02:58:53;16.70;;;11.02;;
28627;SDS011;15815;46.760;19.604;2023-05-29T03:01:19;26.45;;;12.90;;
28627;SDS011;15815;46.760;19.604;2023-05-29T03:03:45;19.63;;;11.40;;
28627;SDS011;15815;46.760;19.604;2023-05-29T03:06:10;19.27;;;11.40;;
28627;SDS011;15815;46.760;19.604;2023-05-29T03:08:36;19.38;;;11.55;;
28627;SDS011;15815;46.760;19.604;2023-05-29T03:11:02;20.60;;;12.20;;
28627;SDS011;15815;46.760;19.604;2023-05-29T03:13:27;26.30;;;12.18;;
28627;SDS011;15815;46.760;19.604;2023-05-29T03:15:53;25.88;;;12.27;;
28627;SDS011;15815;46.760;19.604;2023-05-29T03:18:19;17.40;;;12.25;;
28627;SDS011;15815;46.760;19.604;2023-05-29T03:20:44;20.85;;;12.40;;
28627;SDS011;15815;46.760;19.604;2023-05-29T03:23:10;17.98;;;11.70;;
28627;SDS011;15815;46.760;19.604;2023-05-29T03:25:35;19.77;;;12.80;;
28627;SDS011;15815;46.760;19.604;2023-05-29T03:28:01;26.83;;;11.95;;
28627;SDS011;15815;46.760;19.604;2023-05-29T03:30:27;19.40;;;11.73;;
28627;SDS011;15815;46.760;19.604;2023-05-29T03:32:52;26.88;;;12.10;;
28627;SDS011;15815;46.760;19.604;2023-05-29T03:35:18;19.23;;;12.25;;
28627;SDS011;15815;46.760;19.604;2023-05-29T03:37:44;17.08;;;12.00;;
28627;SDS011;15815;46.760;19.604;2023-05-29T03:40:09;16.77;;;11.75;;
28627;SDS011;15815;46.760;19.604;2023-05-29T03:42:35;17.17;;;12.40;;
28627;SDS011;15815;46.760;19.604;2023-05-29T03:45:01;18.40;;;12.13;;
28627;SDS011;15815;46.760;19.604;2023-05-29T03:47:27;15.23;;;12.13;;
28627;SDS011;15815;46.760;19.604;2023-05-29T03:49:52;15.80;;;11.57;;
28627;SDS011;15815;46.760;19.604;2023-05-29T03:52:18;18.98;;;12.30;;
28627;SDS011;15815;46.760;19.604;2023-05-29T03:54:43;18.45;;;12.15;;
28627;SDS011;15815;46.760;19.604;2023-05-29T03:57:09;17.70;;;12.18;;
28627;SDS011;15815;46.760;19.604;2023-05-29T03:59:35;19.60;;;11.98;;
28627;SDS011;15815;46.760;19.604;2023-05-29T04:02:00;19.02;;;12.93;;
28627;SDS011;15815;46.760;19.604;2023-05-29T04:04:26;20.38;;;13.00;;
28627;SDS011;15815;46.760;19.604;2023-05-29T04:06:52;16.08;;;12.68;;
28627;SDS011;15815;46.760;19.604;2023-05-29T04:09:17;21.55;;;13.00;;
28627;SDS011;15815;46.760;19.604;2023-05-29T04:11:43;20.33;;;12.27;;
28627;SDS011;15815;46.760;19.604;2023-05-29T04:14:09;20.65;;;12.15;;
28627;SDS011;15815;46.760;19.604;2023-05-29T04:16:34;19.48;;;12.75;;
28627;SDS011;15815;46.760;19.604;2023-05-29T04:19:00;21.50;;;12.90;;
28627;SDS011;15815;46.760;19.604;2023-05-29T04:21:28;19.42;;;13.68;;
28627;SDS011;15815;46.760;19.604;2023-05-29T04:23:54;19.38;;;12.77;;
28627;SDS011;15815;46.760;19.604;2023-05-29T04:26:20;17.13;;;12.05;;
28627;SDS011;15815;46.760;19.604;2023-05-29T04:28:47;17.70;;;12.60;;
28627;SDS011;15815;46.760;19.604;2023-05-29T04:31:13;23.08;;;12.55;;
28627;SDS011;15815;46.760;19.604;2023-05-29T04:33:39;21.80;;;13.35;;
28627;SDS011;15815;46.760;19.604;2023-05-29T04:36:05;21.55;;;12.27;;
28627;SDS011;15815;46.760;19.604;2023-05-29T04:38:31;17.38;;;11.73;;
28627;SDS011;15815;46.760;19.604;2023-05-29T04:40:56;18.08;;;12.95;;
28627;SDS011;15815;46.760;19.604;2023-05-29T04:43:23;18.98;;;10.93;;
28627;SDS011;15815;46.760;19.604;2023-05-29T04:46:00;19.92;;;12.30;;
28627;SDS011;15815;46.760;19.604;2023-05-29T04:48:26;16.95;;;12.07;;
28627;SDS011;15815;46.760;19.604;2023-05-29T04:50:51;18.35;;;12.25;;
28627;SDS011;15815;46.760;19.604;2023-05-29T04:53:17;16.77;;;11.82;;
28627;SDS011;15815;46.760;19.604;2023-05-29T04:55:43;34.92;;;12.38;;
28627;SDS011;15815;46.760;19.604;2023-05-29T04:58:08;16.13;;;12.98;;
28627;SDS011;15815;46.760;19.604;2023-05-29T05:00:34;19.05;;;12.02;;
28627;SDS011;15815;46.760;19.604;2023-05-29T05:03:00;21.60;;;12.48;;
28627;SDS011;15815;46.760;19.604;2023-05-29T05:05:25;21.23;;;12.48;;
28627;SDS011;15815;46.760;19.604;2023-05-29T05:07:51;18.08;;;12.43;;
28627;SDS011;15815;46.760;19.604;2023-05-29T05:10:17;17.27;;;12.30;;
28627;SDS011;15815;46.760;19.604;2023-05-29T05:12:42;19.20;;;12.38;;
28627;SDS011;15815;46.760;19.604;2023-05-29T05:15:08;15.63;;;12.20;;
28627;SDS011;15815;46.760;19.604;2023-05-29T05:17:39;15.93;;;12.60;;
28627;SDS011;15815;46.760;19.604;2023-05-29T05:20:05;19.17;;;12.10;;
28627;SDS011;15815;46.760;19.604;2023-05-29T05:22:31;19.05;;;12.10;;
28627;SDS011;15815;46.760;19.604;2023-05-29T05:24:57;15.98;;;12.27;;
28627;SDS011;15815;46.760;19.604;2023-05-29T05:27:22;17.38;;;12.30;;
28627;SDS011;15815;46.760;19.604;2023-05-29T05:29:48;18.90;;;13.18;;
28627;SDS011;15815;46.760;19.604;2023-05-29T05:32:16;21.10;;;13.35;;
28627;SDS011;15815;46.760;19.604;2023-05-29T05:34:41;23.50;;;13.10;;
28627;SDS011;15815;46.760;19.604;2023-05-29T05:37:07;22.52;;;12.65;;
28627;SDS011;15815;46.760;19.604;2023-05-29T05:39:33;23.73;;;13.68;;
28627;SDS011;15815;46.760;19.604;2023-05-29T05:41:59;22.52;;;14.05;;
28627;SDS011;15815;46.760;19.604;2023-05-29T05:44:25;15.52;;;12.43;;
28627;SDS011;15815;46.760;19.604;2023-05-29T05:46:50;18.67;;;13.00;;
28627;SDS011;15815;46.760;19.604;2023-05-29T05:49:16;19.73;;;12.90;;
28627;SDS011;15815;46.760;19.604;2023-05-29T05:51:41;20.23;;;13.63;;
28627;SDS011;15815;46.760;19.604;2023-05-29T05:54:07;19.40;;;12.73;;
28627;SDS011;15815;46.760;19.604;2023-05-29T05:56:33;19.10;;;13.65;;
28627;SDS011;15815;46.760;19.604;2023-05-29T05:58:59;16.02;;;12.60;;
28627;SDS011;15815;46.760;19.604;2023-05-29T06:01:24;18.05;;;11.32;;
28627;SDS011;15815;46.760;19.604;2023-05-29T06:03:50;19.42;;;12.38;;
28627;SDS011;15815;46.760;19.604;2023-05-29T06:06:16;17.88;;;11.77;;
28627;SDS011;15815;46.760;19.604;2023-05-29T06:08:42;19.73;;;10.73;;
28627;SDS011;15815;46.760;19.604;2023-05-29T06:11:07;21.27;;;10.98;;
28627;SDS011;15815;46.760;19.604;2023-05-29T06:13:33;16.42;;;11.82;;
28627;SDS011;15815;46.760;19.604;2023-05-29T06:15:59;16.50;;;11.77;;
28627;SDS011;15815;46.760;19.604;2023-05-29T06:18:25;16.55;;;11.52;;
28627;SDS011;15815;46.760;19.604;2023-05-29T06:20:50;20.17;;;11.73;;
28627;SDS011;15815;46.760;19.604;2023-05-29T06:23:16;18.63;;;11.35;;
28627;SDS011;15815;46.760;19.604;2023-05-29T06:25:44;13.88;;;10.60;;
28627;SDS011;15815;46.760;19.604;2023-05-29T06:28:10;15.77;;;10.90;;
28627;SDS011;15815;46.760;19.604;2023-05-29T06:30:35;12.70;;;10.32;;
28627;SDS011;15815;46.760;19.604;2023-05-29T06:33:01;21.30;;;9.95;;
28627;SDS011;15815;46.760;19.604;2023-05-29T06:35:27;13.13;;;9.38;;
28627;SDS011;15815;46.760;19.604;2023-05-29T06:37:53;16.48;;;10.40;;
28627;SDS011;15815;46.760;19.604;2023-05-29T06:40:19;13.25;;;10.15;;
28627;SDS011;15815;46.760;19.604;2023-05-29T06:42:45;19.67;;;10.73;;
28627;SDS011;15815;46.760;19.604;2023-05-29T06:45:11;12.85;;;9.63;;
28627;SDS011;15815;46.760;19.604;2023-05-29T06:47:37;11.43;;;10.00;;
28627;SDS011;15815;46.760;19.604;2023-05-29T06:50:02;15.40;;;10.18;;
28627;SDS011;15815;46.760;19.604;2023-05-29T06:52:28;15.18;;;9.77;;
28627;SDS011;15815;46.760;19.604;2023-05-29T06:54:54;12.82;;;9.48;;
28627;SDS011;15815;46.760;19.604;2023-05-29T06:57:19;14.57;;;9.27;;
28627;SDS011;15815;46.760;19.604;2023-05-29T06:59:45;16.27;;;9.43;;
28627;SDS011;15815;46.760;19.604;2023-05-29T07:02:12;10.65;;;9.30;;
28627;SDS011;15815;46.760;19.604;2023-05-29T07:04:40;9.80;;;8.80;;
28627;SDS011;15815;46.760;19.604;2023-05-29T07:07:06;14.80;;;8.40;;
28627;SDS011;15815;46.760;19.604;2023-05-29T07:09:31;10.77;;;8.65;;
28627;SDS011;15815;46.760;19.604;2023-05-29T07:11:57;10.90;;;8.50;;
28627;SDS011;15815;46.760;19.604;2023-05-29T07:14:23;13.68;;;8.40;;
28627;SDS011;15815;46.760;19.604;2023-05-29T07:16:48;11.93;;;8.50;;
28627;SDS011;15815;46.760;19.604;2023-05-29T07:19:14;9.82;;;8.07;;
28627;SDS011;15815;46.760;19.604;2023-05-29T07:21:39;9.20;;;8.25;;
28627;SDS011;15815;46.760;19.604;2023-05-29T07:24:05;16.27;;;9.05;;
28627;SDS011;15815;46.760;19.604;2023-05-29T07:26:31;9.73;;;8.05;;
28627;SDS011;15815;46.760;19.604;2023-05-29T07:28:57;13.30;;;8.57;;
28627;SDS011;15815;46.760;19.604;2023-05-29T07:31:24;9.68;;;7.57;;
28627;SDS011;15815;46.760;19.604;2023-05-29T07:33:49;11.82;;;7.78;;
28627;SDS011;15815;46.760;19.604;2023-05-29T07:36:17;16.40;;;8.63;;
28627;SDS011;15815;46.760;19.604;2023-05-29T07:38:43;49.30;;;10.07;;
28627;SDS011;15815;46.760;19.604;2023-05-29T07:41:08;15.23;;;8.00;;
28627;SDS011;15815;46.760;19.604;2023-05-29T07:43:34;14.07;;;9.05;;
28627;SDS011;15815;46.760;19.604;2023-05-29T07:46:00;16.27;;;8.70;;
28627;SDS011;15815;46.760;19.604;2023-05-29T07:48:26;16.30;;;8.95;;
28627;SDS011;15815;46.760;19.604;2023-05-29T07:50:51;16.08;;;8.02;;
28627;SDS011;15815;46.760;19.604;2023-05-29T07:53:17;14.00;;;7.40;;
28627;SDS011;15815;46.760;19.604;2023-05-29T07:55:43;13.07;;;7.63;;
28627;SDS011;15815;46.760;19.604;2023-05-29T07:58:09;14.32;;;8.25;;
28627;SDS011;15815;46.760;19.604;2023-05-29T08:00:34;9.45;;;6.78;;
28627;SDS011;15815;46.760;19.604;2023-05-29T08:03:00;10.50;;;7.50;;
28627;SDS011;15815;46.760;19.604;2023-05-29T08:05:26;13.77;;;7.75;;
28627;SDS011;15815;46.760;19.604;2023-05-29T08:07:52;17.80;;;7.70;;
28627;SDS011;15815;46.760;19.604;2023-05-29T08:10:17;15.00;;;8.63;;
28627;SDS011;15815;46.760;19.604;2023-05-29T08:12:43;11.30;;;6.47;;
28627;SDS011;15815;46.760;19.604;2023-05-29T08:15:09;13.68;;;6.97;;
28627;SDS011;15815;46.760;19.604;2023-05-29T08:17:35;10.32;;;7.45;;
28627;SDS011;15815;46.760;19.604;2023-05-29T08:20:01;10.60;;;7.45;;
28627;SDS011;15815;46.760;19.604;2023-05-29T08:22:30;8.98;;;6.03;;
28627;SDS011;15815;46.760;19.604;2023-05-29T08:24:56;9.57;;;7.03;;
28627;SDS011;15815;46.760;19.604;2023-05-29T08:27:24;8.13;;;6.22;;
28627;SDS011;15815;46.760;19.604;2023-05-29T08:29:50;6.68;;;5.15;;
28627;SDS011;15815;46.760;19.604;2023-05-29T08:32:16;8.65;;;5.30;;
28627;SDS011;15815;46.760;19.604;2023-05-29T08:34:41;9.18;;;5.55;;
28627;SDS011;15815;46.760;19.604;2023-05-29T08:37:07;14.93;;;5.72;;
28627;SDS011;15815;46.760;19.604;2023-05-29T08:39:33;7.57;;;5.57;;
28627;SDS011;15815;46.760;19.604;2023-05-29T08:42:05;9.95;;;5.93;;
28627;SDS011;15815;46.760;19.604;2023-05-29T08:44:35;10.45;;;5.88;;
28627;SDS011;15815;46.760;19.604;2023-05-29T08:47:02;7.90;;;5.40;;
28627;SDS011;15815;46.760;19.604;2023-05-29T08:49:29;8.13;;;5.47;;
28627;SDS011;15815;46.760;19.604;2023-05-29T08:52:11;7.82;;;5.38;;
28627;SDS011;15815;46.760;19.604;2023-05-29T08:54:41;10.15;;;5.38;;
28627;SDS011;15815;46.760;19.604;2023-05-29T08:57:06;8.30;;;5.38;;
28627;SDS011;15815;46.760;19.604;2023-05-29T08:59:32;7.90;;;5.70;;
28627;SDS011;15815;46.760;19.604;2023-05-29T09:01:58;6.68;;;5.40;;
28627;SDS011;15815;46.760;19.604;2023-05-29T09:04:24;7.22;;;4.90;;
28627;SDS011;15815;46.760;19.604;2023-05-29T09:06:50;7.85;;;5.63;;
28627;SDS011;15815;46.760;19.604;2023-05-29T09:09:16;9.63;;;6.45;;
28627;SDS011;15815;46.760;19.604;2023-05-29T09:11:41;9.25;;;6.68;;
28627;SDS011;15815;46.760;19.604;2023-05-29T09:14:54;12.00;;;7.07;;
28627;SDS011;15815;46.760;19.604;2023-05-29T09:17:05;11.43;;;6.93;;
28627;SDS011;15815;46.760;19.604;2023-05-29T09:19:32;9.05;;;6.38;;
28627;SDS011;15815;46.760;19.604;2023-05-29T09:22:02;7.53;;;5.50;;
28627;SDS011;15815;46.760;19.604;2023-05-29T09:24:31;7.70;;;5.97;;
28627;SDS011;15815;46.760;19.604;2023-05-29T09:27:01;7.75;;;5.28;;
28627;SDS011;15815;46.760;19.604;2023-05-29T09:29:30;6.00;;;5.32;;
28627;SDS011;15815;46.760;19.604;2023-05-29T09:31:57;9.20;;;5.60;;
28627;SDS011;15815;46.760;19.604;2023-05-29T09:34:23;9.73;;;5.63;;
28627;SDS011;15815;46.760;19.604;2023-05-29T09:36:50;9.63;;;5.65;;
28627;SDS011;15815;46.760;19.604;2023-05-29T09:39:16;8.55;;;5.57;;
28627;SDS011;15815;46.760;19.604;2023-05-29T09:41:42;7.93;;;5.45;;
28627;SDS011;15815;46.760;19.604;2023-05-29T09:44:12;13.27;;;6.30;;
28627;SDS011;15815;46.760;19.604;2023-05-29T09:46:42;12.20;;;5.35;;
28627;SDS011;15815;46.760;19.604;2023-05-29T09:49:10;12.27;;;5.88;;
28627;SDS011;15815;46.760;19.604;2023-05-29T09:51:37;7.47;;;5.63;;
28627;SDS011;15815;46.760;19.604;2023-05-29T09:54:13;8.65;;;4.97;;
28627;SDS011;15815;46.760;19.604;2023-05-29T09:56:44;10.32;;;5.93;;
28627;SDS011;15815;46.760;19.604;2023-05-29T09:59:11;11.18;;;5.65;;
28627;SDS011;15815;46.760;19.604;2023-05-29T10:01:43;6.78;;;4.20;;
28627;SDS011;15815;46.760;19.604;2023-05-29T10:04:10;6.82;;;5.38;;
28627;SDS011;15815;46.760;19.604;2023-05-29T10:06:36;9.05;;;5.22;;
28627;SDS011;15815;46.760;19.604;2023-05-29T10:09:04;9.32;;;4.55;;
28627;SDS011;15815;46.760;19.604;2023-05-29T10:11:34;6.37;;;4.87;;
28627;SDS011;15815;46.760;19.604;2023-05-29T10:14:01;7.70;;;4.60;;
28627;SDS011;15815;46.760;19.604;2023-05-29T10:16:29;7.70;;;5.15;;
28627;SDS011;15815;46.760;19.604;2023-05-29T10:18:57;15.18;;;6.03;;
28627;SDS011;15815;46.760;19.604;2023-05-29T10:21:26;10.60;;;5.03;;
28627;SDS011;15815;46.760;19.604;2023-05-29T10:23:53;6.23;;;4.63;;
28627;SDS011;15815;46.760;19.604;2023-05-29T10:26:22;7.57;;;4.72;;
28627;SDS011;15815;46.760;19.604;2023-05-29T10:34:33;4.75;;;3.72;;
28627;SDS011;15815;46.760;19.604;2023-05-29T10:40:03;4.30;;;3.45;;
28627;SDS011;15815;46.760;19.604;2023-05-29T10:42:46;4.72;;;3.72;;
28627;SDS011;15815;46.760;19.604;2023-05-29T10:47:55;5.60;;;3.80;;
28627;SDS011;15815;46.760;19.604;2023-05-29T10:50:42;7.65;;;3.50;;
28627;SDS011;15815;46.760;19.604;2023-05-29T10:53:15;9.70;;;4.05;;
28627;SDS011;15815;46.760;19.604;2023-05-29T10:55:42;8.82;;;3.72;;
28627;SDS011;15815;46.760;19.604;2023-05-29T10:58:12;7.82;;;3.72;;
28627;SDS011;15815;46.760;19.604;2023-05-29T11:00:42;3.78;;;3.20;;
28627;SDS011;15815;46.760;19.604;2023-05-29T11:03:10;7.15;;;4.05;;
28627;SDS011;15815;46.760;19.604;2023-05-29T11:08:58;7.47;;;3.55;;
28627;SDS011;15815;46.760;19.604;2023-05-29T11:13:52;5.75;;;3.10;;
28627;SDS011;15815;46.760;19.604;2023-05-29T11:18:50;4.95;;;3.38;;
28627;SDS011;15815;46.760;19.604;2023-05-29T11:23:57;6.63;;;4.20;;
28627;SDS011;15815;46.760;19.604;2023-05-29T11:26:25;5.53;;;3.85;;
28627;SDS011;15815;46.760;19.604;2023-05-29T11:28:52;4.68;;;3.58;;
28627;SDS011;15815;46.760;19.604;2023-05-29T11:31:19;6.97;;;3.80;;
28627;SDS011;15815;46.760;19.604;2023-05-29T11:33:49;6.65;;;3.80;;
28627;SDS011;15815;46.760;19.604;2023-05-29T11:36:19;5.40;;;3.03;;
28627;SDS011;15815;46.760;19.604;2023-05-29T11:38:47;4.97;;;2.63;;
28627;SDS011;15815;46.760;19.604;2023-05-29T11:41:13;7.60;;;3.30;;
28627;SDS011;15815;46.760;19.604;2023-05-29T11:43:39;3.75;;;3.08;;
28627;SDS011;15815;46.760;19.604;2023-05-29T11:46:17;3.70;;;2.83;;
28627;SDS011;15815;46.760;19.604;2023-05-29T11:48:48;3.92;;;2.80;;
28627;SDS011;15815;46.760;19.604;2023-05-29T11:51:14;9.57;;;2.65;;
28627;SDS011;15815;46.760;19.604;2023-05-29T11:53:41;3.85;;;2.80;;
28627;SDS011;15815;46.760;19.604;2023-05-29T11:56:10;5.18;;;2.97;;
28627;SDS011;15815;46.760;19.604;2023-05-29T11:58:37;4.25;;;2.65;;
28627;SDS011;15815;46.760;19.604;2023-05-29T12:01:03;4.30;;;2.75;;
28627;SDS011;15815;46.760;19.604;2023-05-29T12:03:30;3.25;;;2.30;;
28627;SDS011;15815;46.760;19.604;2023-05-29T12:05:55;4.18;;;3.08;;
28627;SDS011;15815;46.760;19.604;2023-05-29T12:08:22;5.07;;;2.80;;
28627;SDS011;15815;46.760;19.604;2023-05-29T12:10:48;3.45;;;2.60;;
28627;SDS011;15815;46.760;19.604;2023-05-29T12:13:15;3.28;;;2.58;;
28627;SDS011;15815;46.760;19.604;2023-05-29T12:15:41;3.13;;;2.67;;
28627;SDS011;15815;46.760;19.604;2023-05-29T12:18:07;9.57;;;2.92;;
28627;SDS011;15815;46.760;19.604;2023-05-29T12:20:33;4.43;;;2.67;;
28627;SDS011;15815;46.760;19.604;2023-05-29T12:23:00;3.10;;;2.55;;
28627;SDS011;15815;46.760;19.604;2023-05-29T12:25:30;3.75;;;2.88;;
28627;SDS011;15815;46.760;19.604;2023-05-29T12:27:59;3.75;;;2.42;;
28627;SDS011;15815;46.760;19.604;2023-05-29T12:30:24;5.20;;;3.75;;
28627;SDS011;15815;46.760;19.604;2023-05-29T12:32:52;4.95;;;3.60;;
28627;SDS011;15815;46.760;19.604;2023-05-29T12:35:22;5.03;;;3.17;;
28627;SDS011;15815;46.760;19.604;2023-05-29T12:37:53;9.93;;;3.22;;
28627;SDS011;15815;46.760;19.604;2023-05-29T12:40:25;4.90;;;2.80;;
28627;SDS011;15815;46.760;19.604;2023-05-29T12:45:26;3.92;;;2.45;;
28627;SDS011;15815;46.760;19.604;2023-05-29T12:55:31;2.65;;;2.33;;
28627;SDS011;15815;46.760;19.604;2023-05-29T12:57:59;4.18;;;2.60;;
28627;SDS011;15815;46.760;19.604;2023-05-29T13:00:24;3.47;;;2.72;;
28627;SDS011;15815;46.760;19.604;2023-05-29T13:02:52;3.72;;;2.63;;
28627;SDS011;15815;46.760;19.604;2023-05-29T13:05:18;2.83;;;2.33;;
28627;SDS011;15815;46.760;19.604;2023-05-29T13:07:46;2.97;;;2.60;;
28627;SDS011;15815;46.760;19.604;2023-05-29T13:10:13;5.43;;;2.60;;
28627;SDS011;15815;46.760;19.604;2023-05-29T13:12:39;2.95;;;2.15;;
28627;SDS011;15815;46.760;19.604;2023-05-29T13:15:05;4.68;;;2.70;;
28627;SDS011;15815;46.760;19.604;2023-05-29T13:17:32;3.97;;;2.53;;
28627;SDS011;15815;46.760;19.604;2023-05-29T13:19:57;3.63;;;2.47;;
28627;SDS011;15815;46.760;19.604;2023-05-29T13:22:23;3.75;;;2.83;;
28627;SDS011;15815;46.760;19.604;2023-05-29T13:24:49;6.30;;;3.10;;
28627;SDS011;15815;46.760;19.604;2023-05-29T13:27:15;3.53;;;2.78;;
28627;SDS011;15815;46.760;19.604;2023-05-29T13:29:40;3.92;;;2.67;;
28627;SDS011;15815;46.760;19.604;2023-05-29T13:32:07;3.13;;;2.60;;
28627;SDS011;15815;46.760;19.604;2023-05-29T13:34:32;4.00;;;2.67;;
28627;SDS011;15815;46.760;19.604;2023-05-29T13:36:58;3.28;;;2.17;;
28627;SDS011;15815;46.760;19.604;2023-05-29T13:39:24;3.65;;;2.70;;
28627;SDS011;15815;46.760;19.604;2023-05-29T13:41:50;4.00;;;2.90;;
28627;SDS011;15815;46.760;19.604;2023-05-29T13:44:16;7.95;;;3.17;;
28627;SDS011;15815;46.760;19.604;2023-05-29T13:46:42;8.32;;;5.75;;
28627;SDS011;15815;46.760;19.604;2023-05-29T13:49:09;3.95;;;3.40;;
28627;SDS011;15815;46.760;19.604;2023-05-29T13:51:35;5.05;;;2.72;;
28627;SDS011;15815;46.760;19.604;2023-05-29T13:54:00;4.35;;;2.78;;
28627;SDS011;15815;46.760;19.604;2023-05-29T13:56:26;3.05;;;2.42;;
28627;SDS011;15815;46.760;19.604;2023-05-29T13:58:52;9.38;;;3.53;;
28627;SDS011;15815;46.760;19.604;2023-05-29T14:01:19;7.32;;;2.55;;
28627;SDS011;15815;46.760;19.604;2023-05-29T14:03:45;5.07;;;2.72;;
28627;SDS011;15815;46.760;19.604;2023-05-29T14:06:11;3.90;;;2.40;;
28627;SDS011;15815;46.760;19.604;2023-05-29T14:08:37;8.73;;;2.88;;
28627;SDS011;15815;46.760;19.604;2023-05-29T14:11:03;4.80;;;2.63;;
28627;SDS011;15815;46.760;19.604;2023-05-29T14:13:29;6.97;;;2.80;;
28627;SDS011;15815;46.760;19.604;2023-05-29T14:15:55;4.78;;;2.88;;
28627;SDS011;15815;46.760;19.604;2023-05-29T14:18:21;5.70;;;2.83;;
28627;SDS011;15815;46.760;19.604;2023-05-29T14:20:47;6.43;;;3.10;;
28627;SDS011;15815;46.760;19.604;2023-05-29T14:23:14;5.03;;;2.90;;
28627;SDS011;15815;46.760;19.604;2023-05-29T14:25:42;3.53;;;2.90;;
28627;SDS011;15815;46.760;19.604;2023-05-29T14:28:08;4.15;;;2.78;;
28627;SDS011;15815;46.760;19.604;2023-05-29T14:30:33;5.68;;;3.13;;
28627;SDS011;15815;46.760;19.604;2023-05-29T14:32:59;5.32;;;3.25;;
28627;SDS011;15815;46.760;19.604;2023-05-29T14:35:25;3.88;;;2.35;;
28627;SDS011;15815;46.760;19.604;2023-05-29T14:37:51;4.15;;;2.85;;
28627;SDS011;15815;46.760;19.604;2023-05-29T14:40:17;6.43;;;3.10;;
28627;SDS011;15815;46.760;19.604;2023-05-29T14:42:43;4.40;;;3.30;;
28627;SDS011;15815;46.760;19.604;2023-05-29T14:45:09;5.53;;;3.20;;
28627;SDS011;15815;46.760;19.604;2023-05-29T14:47:35;2.97;;;2.67;;
28627;SDS011;15815;46.760;19.604;2023-05-29T14:50:01;5.53;;;2.42;;
28627;SDS011;15815;46.760;19.604;2023-05-29T14:52:27;6.15;;;3.35;;
28627;SDS011;15815;46.760;19.604;2023-05-29T14:54:55;6.63;;;3.50;;
28627;SDS011;15815;46.760;19.604;2023-05-29T14:57:21;9.63;;;3.63;;
28627;SDS011;15815;46.760;19.604;2023-05-29T14:59:47;3.88;;;3.38;;
28627;SDS011;15815;46.760;19.604;2023-05-29T15:02:13;4.70;;;3.08;;
28627;SDS011;15815;46.760;19.604;2023-05-29T15:04:39;4.35;;;2.67;;